RJCT(METAR)
08/13 14:00
METAR RJCT 130500Z 29009G19KT 9999 FEW040 31/16 Q1004 RMK 2CU040
A2965=
戻る
トップページへ戻る
IMOC Co,.Ltd.